Time;durP1;ratioP1;P1;durP2;ratioP2;P2;SDS_P1;SDS_P2;PMS_P1;PMS_P2;Temp;Humidity;BMP_temperature;BMP_pressure;BME280_temperature;BME280_humidity;BME280_pressure;Samples;Min_cycle;Max_cycle;Signal;HPM_P1;HPM_P2
2022/04/21 00:02:41;;;;;;;2.45;1.92;;;1.00;1.40;;;1.98;100.00;94782.70;647085;212;32128;-74
2022/04/21 00:05:21;;;;;;;2.00;1.80;;;0.80;1.40;;;1.89;100.00;94779.37;646233;212;31571;-75
2022/04/21 00:08:06;;;;;;;3.17;2.15;;;0.70;99.90;;;1.82;100.00;94777.05;613707;226;32057;-74
2022/04/21 00:10:48;;;;;;;2.55;1.73;;;0.70;1.40;;;1.74;100.00;94774.21;647086;216;31592;-74
2022/04/21 00:13:31;;;;;;;2.12;1.48;;;0.60;1.40;;;1.67;100.00;94771.87;618999;222;42547;-75
2022/04/21 00:16:12;;;;;;;2.40;1.55;;;0.60;1.40;;;1.63;100.00;94773.31;646948;216;31503;-75
2022/04/21 00:18:53;;;;;;;1.83;1.60;;;0.50;1.40;;;1.65;100.00;94767.66;632396;222;31702;-74
2022/04/21 00:24:23;;;;;;;1.85;1.55;;;0.60;1.40;;;1.68;100.00;94771.75;646951;216;31940;-74
2022/04/21 00:29:43;;;;;;;1.85;1.45;;;0.60;1.40;;;1.62;100.00;94771.02;647376;216;31587;-75
2022/04/21 00:32:24;;;;;;;1.35;1.20;;;0.70;1.40;;;1.69;100.00;94771.64;646503;216;31550;-74
2022/04/21 00:35:51;;;;;;;2.00;1.90;;;1.00;1.40;;;1.68;100.00;94774.42;647349;216;31891;-74
2022/04/21 00:38:33;;;;;;;1.60;1.08;;;0.80;1.40;;;1.68;100.00;94762.98;647647;216;31535;-75
2022/04/21 00:41:15;;;;;;;1.90;1.58;;;0.70;1.40;;;1.62;100.00;94760.44;647921;212;32158;-73
2022/04/21 00:43:56;;;;;;;1.27;1.13;;;0.70;1.40;;;1.68;100.00;94760.91;647721;212;31721;-75
2022/04/21 00:46:41;;;;;;;1.67;1.50;;;0.60;1.40;;;1.54;100.00;94761.66;646702;216;31637;-75
2022/04/21 00:49:23;;;;;;;1.58;1.20;;;0.50;1.40;;;1.31;100.00;94761.86;620830;226;43054;-76
2022/04/21 00:52:10;;;;;;;1.83;1.10;;;0.20;1.40;;;1.32;100.00;94757.27;646506;212;42195;-74
2022/04/21 00:57:29;;;;;;;2.80;1.65;;;-0.10;1.40;;;0.96;100.00;94755.29;646506;212;31513;-74
2022/04/21 01:00:14;;;;;;;2.12;1.65;;;0.10;1.40;;;1.07;100.00;94755.64;647784;216;31570;-74
2022/04/21 01:02:55;;;;;;;2.70;1.60;;;0.20;1.40;;;1.14;100.00;94752.92;647698;212;31661;-74
2022/04/21 01:05:37;;;;;;;1.60;1.50;;;0.20;1.40;;;1.14;100.00;94748.44;647981;212;31678;-75
2022/04/21 01:08:22;;;;;;;1.10;1.00;;;0.20;1.40;;;1.27;100.00;94755.41;637379;212;42354;-73
2022/04/21 01:11:04;;;;;;;1.23;1.12;;;0.30;1.40;;;1.22;100.00;94754.97;620038;226;31890;-75
2022/04/21 01:13:46;;;;;;;0.98;0.98;;;0.20;1.40;;;1.31;100.00;94754.91;646877;212;42135;-75
2022/04/21 01:16:27;;;;;;;2.20;1.80;;;0.20;1.40;;;1.33;100.00;94754.01;647321;216;42170;-74
2022/04/21 01:19:09;;;;;;;2.58;1.30;;;0.30;1.40;;;1.28;100.00;94746.66;647423;212;31517;-74
2022/04/21 01:21:51;;;;;;;2.95;1.80;;;0.20;99.90;;;1.26;100.00;94742.97;648177;216;42729;-74
2022/04/21 01:24:32;;;;;;;2.00;1.23;;;0.10;1.40;;;1.19;100.00;94741.67;647291;212;32133;-76
2022/04/21 01:27:17;;;;;;;2.83;1.10;;;0.10;1.40;;;1.21;100.00;94747.86;647913;212;31756;-73
2022/04/21 01:30:00;;;;;;;2.00;1.00;;;0.20;1.40;;;1.25;100.00;94742.11;632620;222;31906;-74
2022/04/21 01:32:42;;;;;;;1.77;1.20;;;0.20;1.40;;;1.27;100.00;94735.98;647170;216;42157;-75
2022/04/21 01:35:53;;;;;;;1.65;1.55;;;0.30;1.40;;;1.25;100.00;94739.23;646966;216;31575;-75
2022/04/21 01:41:11;;;;;;;2.60;1.58;;;0.30;1.40;;;1.19;100.00;94747.33;646046;212;42795;-73
2022/04/21 01:43:59;;;;;;;1.20;1.10;;;0.30;1.40;;;1.33;100.00;94744.30;647578;216;31752;-73
2022/04/21 01:46:41;;;;;;;1.43;1.33;;;0.30;99.90;;;1.19;100.00;94741.72;646625;212;31621;-73
2022/04/21 01:49:23;;;;;;;2.47;2.15;;;0.20;99.90;;;1.15;100.00;94738.78;646595;212;31553;-75
2022/04/21 01:52:05;;;;;;;1.40;1.30;;;0.10;99.90;;;1.04;100.00;94734.92;647431;216;42173;-74
2022/04/21 01:57:24;;;;;;;1.98;1.08;;;0.10;99.90;;;1.08;100.00;94731.47;619482;226;43118;-74
2022/04/21 02:00:07;;;;;;;1.92;1.73;;;0.20;99.90;;;1.14;100.00;94731.25;646963;216;43097;-74
2022/04/21 02:02:53;;;;;;;1.80;1.20;;;0.00;99.90;;;1.06;100.00;94734.98;649626;216;31589;-75
2022/04/21 02:05:35;;;;;;;2.60;1.15;;;0.00;99.90;;;1.13;100.00;94736.05;620053;226;42855;-73
2022/04/21 02:08:17;;;;;;;1.10;1.10;;;0.00;99.90;;;1.05;100.00;94732.21;628155;219;31857;-74
2022/04/21 02:11:01;;;;;;;3.10;1.98;;;-0.10;99.90;;;0.94;100.00;94732.92;647192;216;42596;-73
2022/04/21 02:13:43;;;;;;;1.70;1.40;;;-0.20;99.90;;;1.02;100.00;94731.83;647633;216;31638;-74
2022/04/21 02:16:28;;;;;;;3.10;1.33;;;-0.10;99.90;;;0.94;100.00;94728.28;646459;212;31593;-75
2022/04/21 02:19:10;;;;;;;1.00;1.00;;;-0.30;99.90;;;0.74;100.00;94725.86;647040;212;42160;-74
2022/04/21 02:21:52;;;;;;;2.50;1.67;;;-0.40;1.40;;;0.59;100.00;94721.74;646226;216;42754;-73
2022/04/21 02:24:36;;;;;;;3.60;2.33;;;-0.40;99.90;;;0.52;100.00;94718.54;647496;216;42642;-75
2022/04/21 02:27:19;;;;;;;3.58;1.85;;;-0.40;99.90;;;0.59;100.00;94722.33;646714;216;32152;-74
2022/04/21 02:30:00;;;;;;;2.60;2.28;;;-0.30;1.40;;;0.60;100.00;94723.67;647419;216;31702;-74
2022/04/21 02:32:42;;;;;;;2.42;1.65;;;-0.30;99.90;;;0.59;100.00;94727.94;647581;216;42583;-74
2022/04/21 02:35:51;;;;;;;2.40;1.80;;;-0.30;99.90;;;0.61;100.00;94729.06;647887;216;31595;-75
2022/04/21 02:38:33;;;;;;;1.65;1.55;;;-0.30;99.90;;;0.58;100.00;94730.16;647877;216;31548;-74
2022/04/21 02:41:16;;;;;;;2.42;1.58;;;-0.40;99.90;;;0.59;100.00;94730.38;619332;225;31821;-74
2022/04/21 02:43:57;;;;;;;1.60;1.40;;;-0.30;99.90;;;0.59;100.00;94730.28;646444;216;31547;-74
2022/04/21 02:46:39;;;;;;;3.35;1.52;;;-0.40;99.90;;;0.56;100.00;94726.42;647904;212;31530;-74
2022/04/21 02:49:21;;;;;;;1.73;1.10;;;-0.40;99.90;;;0.55;100.00;94717.59;646983;212;31713;-73
2022/04/21 02:52:09;;;;;;;1.30;1.20;;;-0.40;99.90;;;0.53;100.00;94718.17;620109;226;31932;-73
2022/04/21 02:57:40;;;;;;;1.90;1.80;;;-0.20;99.90;;;0.73;100.00;94713.05;640831;217;31616;-75
2022/04/21 03:00:21;;;;;;;0.90;0.90;;;-0.10;99.90;;;0.61;100.00;94711.41;647959;216;42185;-75
2022/04/21 03:03:03;;;;;;;2.00;1.35;;;-0.30;99.90;;;0.51;100.00;94705.42;619505;222;31936;-75
2022/04/21 03:05:45;;;;;;;2.00;1.80;;;-0.30;99.90;;;0.61;100.00;94709.91;646737;212;32175;-75
2022/04/21 03:08:26;;;;;;;1.55;1.45;;;-0.30;99.90;;;0.55;100.00;94705.65;611030;222;32187;-73
2022/04/21 03:11:09;;;;;;;1.55;1.45;;;-0.30;99.90;;;0.62;100.00;94701.70;619035;226;31856;-75
2022/04/21 03:13:54;;;;;;;2.50;1.75;;;-0.20;99.90;;;0.70;100.00;94699.39;647158;216;31671;-75
2022/04/21 03:16:36;;;;;;;3.83;1.58;;;-0.20;99.90;;;0.91;100.00;94696.44;647621;216;31601;-74
2022/04/21 03:24:18;;;;;;;3.62;1.48;;;-0.10;99.90;;;0.98;100.00;94708.33;648186;212;31675;-74
2022/04/21 03:25:41;;;;;;;1.10;0.93;;;-0.10;1.40;;;0.83;100.00;94699.78;648831;216;42214;-74
2022/04/21 03:28:33;;;;;;;1.90;1.77;;;-0.10;1.40;;;0.89;100.00;94696.44;646413;216;42225;-74
2022/04/21 03:31:14;;;;;;;2.42;1.87;;;0.00;1.40;;;0.96;100.00;94701.92;647291;216;42253;-74
2022/04/21 03:35:51;;;;;;;1.30;0.93;;;0.00;1.40;;;1.00;100.00;94693.56;616603;226;31949;-75
2022/04/21 03:38:38;;;;;;;1.67;1.15;;;0.00;1.40;;;1.02;100.00;94694.15;646715;216;31543;-73
2022/04/21 03:41:15;;;;;;;3.42;2.35;;;0.00;1.40;;;1.06;100.00;94702.22;619806;226;42511;-75
2022/04/21 03:43:56;;;;;;;2.95;1.67;;;0.00;1.40;;;1.17;100.00;94696.93;646350;213;31948;-73
2022/04/21 03:46:42;;;;;;;2.70;1.95;;;0.10;1.40;;;1.16;100.00;94696.39;647659;216;42222;-74
2022/04/21 03:49:25;;;;;;;3.28;2.22;;;0.10;1.40;;;1.14;100.00;94691.00;646432;212;31616;-75
2022/04/21 03:52:10;;;;;;;1.65;1.55;;;0.20;1.40;;;1.24;100.00;94681.67;648241;216;42254;-75
2022/04/21 03:54:49;;;;;;;3.60;2.00;;;0.20;1.40;;;1.36;100.00;94686.36;619406;226;32819;-74
2022/04/21 03:57:32;;;;;;;2.30;1.20;;;0.20;1.40;;;1.53;100.00;94683.56;620137;226;32267;-73
2022/04/21 04:00:13;;;;;;;1.58;1.48;;;0.30;1.40;;;1.52;100.00;94687.63;646816;212;31585;-75
2022/04/21 04:02:55;;;;;;;1.40;1.30;;;0.30;1.40;;;1.34;100.00;94688.22;647822;212;31568;-73
2022/04/21 04:05:36;;;;;;;2.35;1.35;;;0.20;1.40;;;1.22;100.00;94683.97;647920;216;42520;-75
2022/04/21 04:11:05;;;;;;;1.87;1.50;;;0.00;1.40;;;1.24;100.00;94683.86;647157;216;42171;-75
2022/04/21 04:13:49;;;;;;;2.10;1.20;;;0.10;1.40;;;1.29;100.00;94678.27;647011;216;31699;-73
2022/04/21 04:16:31;;;;;;;0.87;0.87;;;0.20;1.40;;;1.22;100.00;94679.59;652411;216;24512;-74
2022/04/21 04:19:13;;;;;;;1.17;0.73;;;0.20;1.40;;;1.55;100.00;94677.85;647935;216;32124;-74
2022/04/21 04:21:54;;;;;;;2.40;1.65;;;0.30;1.40;;;1.56;100.00;94671.81;647773;212;31479;-75
2022/04/21 04:24:36;;;;;;;1.95;1.30;;;0.30;1.40;;;1.44;100.00;94677.98;647037;212;42892;-75
2022/04/21 04:27:18;;;;;;;1.57;1.47;;;0.30;1.40;;;1.45;100.00;94678.03;648107;212;31555;-75
2022/04/21 04:32:41;;;;;;;1.15;1.05;;;0.40;1.40;;;1.59;100.00;94675.02;646348;212;31616;-75
2022/04/21 04:35:51;;;;;;;3.20;2.12;;;0.50;1.40;;;1.67;100.00;94668.34;646818;216;31560;-75
2022/04/21 04:38:33;;;;;;;1.40;1.30;;;0.60;1.40;;;1.82;100.00;94666.86;647427;212;31578;-73
2022/04/21 04:43:55;;;;;;;1.50;1.05;;;0.90;1.40;;;2.27;100.00;94671.23;646097;212;31590;-75
2022/04/21 04:46:43;;;;;;;1.70;1.10;;;1.10;1.40;;;2.58;100.00;94669.34;616183;226;31874;-73
2022/04/21 04:49:27;;;;;;;1.40;1.30;;;1.30;1.40;;;2.64;100.00;94670.36;647314;212;32094;-74
2022/04/21 04:52:09;;;;;;;1.50;1.40;;;1.40;1.40;;;2.87;100.00;94670.70;647073;216;31623;-75
2022/04/21 04:54:54;;;;;;;2.00;1.58;;;1.60;1.40;;;2.93;100.00;94677.42;647534;212;31558;-75
2022/04/21 04:57:36;;;;;;;2.30;1.60;;;1.60;1.40;;;2.98;100.00;94675.07;647534;212;31593;-75
2022/04/21 05:00:19;;;;;;;3.90;1.95;;;1.70;1.40;;;3.07;100.00;94671.59;645757;212;31587;-75
2022/04/21 05:03:01;;;;;;;1.40;1.30;;;1.70;1.40;;;3.21;100.00;94668.38;646920;212;31545;-75
2022/04/21 05:05:42;;;;;;;3.60;2.20;;;1.90;1.40;;;3.42;100.00;94665.47;647967;216;31546;-75
2022/04/21 05:08:24;;;;;;;3.85;1.00;;;2.00;1.40;;;3.56;100.00;94661.11;615266;226;32015;-74
2022/04/21 05:11:06;;;;;;;4.93;2.60;;;2.10;1.40;;;3.73;100.00;94662.08;646220;212;31522;-74
2022/04/21 05:13:47;;;;;;;4.68;4.25;;;2.30;1.40;;;4.03;100.00;94662.63;646436;216;31580;-75
2022/04/21 05:16:30;;;;;;;2.60;1.80;;;2.60;1.40;;;4.31;100.00;94661.39;647069;212;31556;-75
2022/04/21 05:19:14;;;;;;;4.87;2.08;;;2.80;1.40;;;4.46;100.00;94663.59;645708;212;31655;-75
2022/04/21 05:21:57;;;;;;;3.40;2.10;;;2.90;1.40;;;4.63;100.00;94665.41;646253;212;31542;-76
2022/04/21 05:24:38;;;;;;;2.22;1.55;;;3.00;1.40;;;4.58;100.00;94666.37;648637;216;31639;-74
2022/04/21 05:27:23;;;;;;;1.98;1.87;;;3.10;1.40;;;4.55;100.00;94665.50;647880;212;31623;-74
2022/04/21 05:32:55;;;;;;;2.30;1.70;;;3.20;1.40;;;4.69;100.00;94662.89;619974;226;31880;-76
2022/04/21 05:35:51;;;;;;;3.80;2.40;;;3.10;99.90;;;4.93;100.00;94663.70;646023;212;32125;-75
2022/04/21 05:38:37;;;;;;;2.33;2.12;;;3.30;1.40;;;4.84;100.00;94665.79;645814;216;32042;-75
2022/04/21 05:41:19;;;;;;;4.22;3.22;;;3.50;99.90;;;4.99;100.00;94665.22;619453;222;31925;-75
2022/04/21 05:44:06;;;;;;;6.53;2.22;;;3.60;1.40;;;5.11;100.00;94668.97;645501;212;31633;-74
2022/04/21 05:46:54;;;;;;;2.80;2.17;;;3.70;99.90;;;5.28;100.00;94667.89;620342;226;31916;-74
2022/04/21 05:49:36;;;;;;;2.90;2.60;;;3.90;99.90;;;5.38;100.00;94665.66;647158;216;42242;-74
2022/04/21 05:52:18;;;;;;;4.12;2.95;;;4.00;99.90;;;5.36;100.00;94667.67;647966;216;31598;-74
2022/04/21 05:55:00;;;;;;;2.33;2.12;;;4.10;99.90;;;5.78;100.00;94661.73;646629;212;31557;-75
2022/04/21 05:57:43;;;;;;;2.92;2.35;;;4.30;99.90;;;6.17;100.00;94664.77;647931;216;42804;-73
2022/04/21 06:00:23;;;;;;;4.60;2.83;;;4.60;99.90;;;6.44;100.00;94664.62;647014;216;32153;-74
2022/04/21 06:03:11;;;;;;;2.80;1.83;;;4.70;1.40;;;6.59;100.00;94661.88;647482;212;31897;-74
2022/04/21 06:05:59;;;;;;;2.58;2.15;;;4.90;99.90;;;6.28;100.00;94660.54;646877;216;31999;-76
2022/04/21 06:08:40;;;;;;;2.50;2.30;;;4.90;1.40;;;6.80;100.00;94660.65;636599;216;31810;-74
2022/04/21 06:11:24;;;;;;;4.37;2.63;;;5.10;99.90;;;7.03;100.00;94654.53;647929;216;31582;-75
2022/04/21 06:14:05;;;;;;;4.70;2.50;;;5.30;1.40;;;6.49;100.00;94661.40;646602;216;42216;-76
2022/04/21 06:16:50;;;;;;;5.80;2.80;;;5.10;99.90;;;6.66;100.00;94660.41;619952;222;32814;-79
2022/04/21 06:19:32;;;;;;;5.53;2.90;;;5.30;99.90;;;6.96;100.00;94656.45;648132;216;31564;-79
2022/04/21 06:22:19;;;;;;;4.17;3.30;;;5.30;99.90;;;7.12;100.00;94657.34;647039;216;31671;-75
2022/04/21 06:25:01;;;;;;;3.10;2.40;;;5.50;99.90;;;7.17;100.00;94648.13;646627;216;31720;-75
2022/04/21 06:27:43;;;;;;;4.28;3.00;;;5.40;99.90;;;7.23;100.00;94643.25;618614;225;32002;-76
2022/04/21 06:30:27;;;;;;;5.30;2.20;;;5.60;99.90;;;7.35;100.00;94639.28;645803;212;31575;-75
2022/04/21 06:35:51;;;;;;;4.72;3.55;;;5.90;1.40;;;7.15;100.00;94646.60;645948;212;31736;-75
2022/04/21 06:38:33;;;;;;;4.00;2.60;;;5.90;99.90;;;6.94;100.00;94647.72;647334;216;31605;-76
2022/04/21 06:41:14;;;;;;;3.30;2.20;;;5.90;99.90;;;6.97;100.00;94641.56;646305;212;31594;-74
2022/04/21 06:49:39;;;;;;;2.78;2.30;;;6.20;99.90;;;7.07;100.00;94644.98;647173;216;34515;-75
2022/04/21 06:52:21;;;;;;;3.40;2.90;;;6.20;99.90;;;7.18;100.00;94645.52;645277;212;31567;-75
2022/04/21 06:55:05;;;;;;;3.03;2.35;;;6.20;99.90;;;7.49;100.00;94646.16;647268;216;32196;-75
2022/04/21 06:57:53;;;;;;;3.33;3.03;;;6.40;99.90;;;7.75;100.00;94641.42;647455;212;31553;-77
2022/04/21 07:00:41;;;;;;;3.20;2.90;;;6.70;99.90;;;7.95;100.00;94634.00;645443;216;31589;-75
2022/04/21 07:03:23;;;;;;;6.60;2.30;;;6.90;1.40;;;8.23;99.17;94633.84;647398;216;31898;-76
2022/04/21 07:06:07;;;;;;;4.10;2.70;;;6.90;99.90;;;8.44;97.84;94633.55;646978;216;32115;-75
2022/04/21 07:08:51;;;;;;;2.37;2.17;;;7.00;99.90;;;8.46;95.95;94632.95;611998;222;32339;-77
2022/04/21 07:11:35;;;;;;;3.47;2.22;;;7.20;99.90;;;8.68;96.40;94631.23;645594;212;31952;-74
2022/04/21 07:14:17;;;;;;;3.37;2.25;;;7.50;99.90;;;8.93;93.77;94636.38;646774;216;31575;-75
2022/04/21 07:16:58;;;;;;;2.80;2.60;;;7.50;99.90;;;9.04;91.66;94637.97;647081;216;31604;-76
2022/04/21 07:19:40;;;;;;;3.67;3.00;;;7.60;99.90;;;9.15;90.81;94632.70;646577;216;31618;-75
2022/04/21 07:22:24;;;;;;;4.83;2.90;;;7.70;99.90;;;8.99;89.76;94627.78;646210;212;31582;-75
2022/04/21 07:25:03;;;;;;;4.17;3.13;;;7.90;99.90;;;9.40;89.92;94629.67;647456;212;31581;-74
2022/04/21 07:27:45;;;;;;;3.00;2.47;;;8.20;99.90;;;9.55;87.83;94632.75;645918;216;32147;-74
2022/04/21 07:30:27;;;;;;;3.35;2.45;;;8.30;99.90;;;9.73;86.18;94641.92;645638;212;32179;-74
2022/04/21 07:35:51;;;;;;;3.35;2.50;;;8.20;1.40;;;9.63;84.12;94634.47;619062;226;32414;-75
2022/04/21 07:38:34;;;;;;;2.90;2.50;;;8.20;99.90;;;9.81;84.77;94631.34;646253;216;31600;-75
2022/04/21 07:41:20;;;;;;;4.67;3.17;;;8.70;99.90;;;10.08;83.62;94631.87;647318;216;31599;-77
2022/04/21 07:44:04;;;;;;;3.90;3.20;;;8.90;99.90;;;10.05;83.69;94633.75;647322;216;31735;-75
2022/04/21 07:46:46;;;;;;;3.15;2.08;;;8.80;99.90;;;10.35;82.87;94632.50;619159;226;43094;-75
2022/04/21 07:55:18;;;;;;;2.87;2.67;;;9.30;1.40;;;10.46;81.50;94636.19;645884;216;31618;-75
2022/04/21 07:58:00;;;;;;;4.40;2.80;;;9.60;99.90;;;10.53;82.61;94633.51;646318;216;42181;-75
2022/04/21 08:00:42;;;;;;;5.23;3.73;;;9.70;1.40;;;11.06;81.23;94635.30;618552;222;31942;-75
2022/04/21 08:03:25;;;;;;;4.20;2.80;;;10.00;1.40;;;11.28;79.20;94632.02;646684;216;31832;-75
2022/04/21 08:06:05;;;;;;;4.10;2.90;;;10.10;1.40;;;11.49;76.73;94635.98;646705;212;31555;-75
2022/04/21 08:11:21;;;;;;;3.40;2.90;;;10.30;1.40;;;11.52;74.14;94631.72;618553;225;31960;-75
2022/04/21 08:14:03;;;;;;;4.03;3.37;;;10.60;1.40;;;11.23;73.10;94632.80;646077;212;42175;-75
2022/04/21 08:16:44;;;;;;;6.90;3.50;;;10.60;1.40;;;11.35;72.07;94629.06;648381;216;31600;-75
2022/04/21 08:19:26;;;;;;;3.33;2.40;;;10.40;1.40;;;11.77;73.84;94626.87;647639;212;42137;-75
2022/04/21 08:22:17;;;;;;;4.43;3.13;;;10.90;1.40;;;12.24;70.01;94620.45;620066;226;42546;-78
2022/04/21 08:35:58;;;;;;;4.05;2.55;;;12.00;1.40;;;12.52;60.57;94620.73;646345;216;31644;-74
2022/04/21 08:38:35;;;;;;;4.28;3.25;;;11.80;1.40;;;12.95;61.34;94625.75;645853;216;31540;-75
2022/04/21 08:41:17;;;;;;;4.43;2.80;;;11.90;1.40;;;13.52;61.67;94622.28;645832;216;31616;-75
2022/04/21 08:43:58;;;;;;;4.70;3.30;;;12.30;1.40;;;13.72;60.05;94621.13;646627;216;32446;-75
2022/04/21 08:46:41;;;;;;;3.70;2.60;;;12.60;1.40;;;13.92;57.20;94617.06;646950;216;32275;-75
2022/04/21 08:49:22;;;;;;;3.00;2.70;;;12.70;1.40;;;13.52;60.98;94623.55;647633;216;32785;-75
2022/04/21 08:52:04;;;;;;;3.90;2.63;;;12.80;1.40;;;14.35;60.44;94616.92;646794;213;32192;-75
2022/04/21 08:54:51;;;;;;;4.28;3.00;;;13.20;1.40;;;14.40;58.19;94612.03;642563;216;31619;-79
2022/04/21 08:57:35;;;;;;;4.37;3.47;;;13.30;1.40;;;14.49;58.39;94612.05;646945;216;31541;-80
2022/04/21 09:00:21;;;;;;;5.20;2.50;;;13.90;1.40;;;16.32;57.76;94609.92;618700;226;33934;-75
2022/04/21 09:03:04;;;;;;;5.78;3.40;;;16.80;1.40;;;16.33;49.29;94606.23;647125;216;31589;-75
2022/04/21 09:05:46;;;;;;;3.80;3.00;;;18.60;1.40;;;19.70;46.59;94599.44;645503;212;31554;-76
2022/04/21 09:08:28;;;;;;;3.42;2.78;;;21.20;1.40;;;20.98;46.09;94599.53;647990;216;31551;-76
2022/04/21 09:11:09;;;;;;;6.82;3.95;;;21.60;1.40;;;21.52;38.98;94592.33;646353;216;31602;-75
2022/04/21 09:13:51;;;;;;;5.05;3.47;;;21.00;1.40;;;21.22;39.46;94591.75;645850;212;31551;-76
2022/04/21 09:19:07;;;;;;;4.65;3.47;;;21.80;1.40;;;23.61;36.61;94579.97;620209;225;42556;-76
2022/04/21 09:21:56;;;;;;;4.90;3.60;;;21.10;99.90;;;23.45;41.14;94578.17;620309;226;31905;-79
2022/04/21 09:24:36;;;;;;;4.85;3.65;;;22.20;99.90;;;26.06;36.56;94572.36;619294;226;32084;-79
2022/04/21 09:27:24;;;;;;;4.32;3.67;;;23.80;1.40;;;24.39;36.95;94581.69;647311;214;31863;-77
2022/04/21 09:30:13;;;;;;;4.35;3.45;;;23.30;1.40;;;26.35;32.62;94574.35;647020;212;31573;-79
2022/04/21 09:33:00;;;;;;;4.15;3.75;;;22.80;1.40;;;26.58;34.82;94572.01;619806;226;31956;-76
2022/04/21 09:35:51;;;;;;;5.33;4.50;;;23.20;1.40;;;26.06;32.68;94574.77;647240;216;31561;-77
2022/04/21 09:38:34;;;;;;;5.03;4.32;;;23.10;1.40;;;26.49;31.65;94568.35;646681;216;31548;-78
2022/04/21 09:41:15;;;;;;;4.50;4.10;;;22.10;1.40;;;25.30;31.93;94571.06;646962;216;31590;-77
2022/04/21 09:46:56;;;;;;;4.00;3.58;;;24.00;1.40;;;25.89;33.44;94560.09;618467;226;32577;-77
2022/04/21 09:49:39;;;;;;;6.03;3.80;;;23.80;1.40;;;27.36;30.65;94559.91;647288;216;31589;-77
2022/04/21 09:52:27;;;;;;;4.62;3.70;;;24.00;1.40;;;27.41;32.32;94555.81;647622;216;31572;-77
2022/04/21 09:55:27;;;;;;;5.95;4.07;;;22.70;1.40;;;27.13;30.86;94556.77;647065;212;31685;-77
2022/04/21 09:58:09;;;;;;;5.05;4.00;;;23.50;1.40;;;27.72;29.99;94554.16;618851;222;32371;-77
2022/04/21 10:00:53;;;;;;;4.68;4.20;;;24.10;1.40;;;27.06;28.74;94549.92;646399;212;31648;-77
2022/04/21 10:03:35;;;;;;;4.07;3.60;;;23.30;1.40;;;26.76;27.88;94548.92;647192;216;31934;-77
2022/04/21 10:06:20;;;;;;;3.75;3.37;;;24.10;1.40;;;27.19;30.04;94548.56;648533;216;32154;-79
2022/04/21 10:09:03;;;;;;;4.50;3.37;;;24.50;1.40;;;27.87;28.05;94535.61;637236;216;31809;-75
2022/04/21 10:11:53;;;;;;;4.00;3.70;;;23.10;1.40;;;27.68;29.02;94535.27;646293;216;32364;-78
2022/04/21 10:14:34;;;;;;;5.35;3.58;;;23.60;1.40;;;26.30;29.48;94540.22;648192;212;31575;-79
2022/04/21 10:17:22;;;;;;;4.80;3.83;;;23.90;99.90;;;28.08;28.85;94530.31;646789;216;31615;-77
2022/04/21 10:20:05;;;;;;;3.72;3.42;;;24.50;1.40;;;25.31;27.64;94538.69;646909;216;31554;-76
2022/04/21 10:22:47;;;;;;;4.55;3.60;;;21.50;99.90;;;23.79;32.96;94536.66;646315;216;31542;-76
2022/04/21 10:25:34;;;;;;;5.28;3.25;;;22.10;99.90;;;26.34;29.54;94517.46;646756;216;42235;-78
2022/04/21 10:28:33;;;;;;;3.95;3.55;;;23.60;99.90;;;22.79;29.98;94535.27;646779;213;32003;-78
2022/04/21 10:31:28;;;;;;;3.40;3.10;;;22.70;99.90;;;29.01;27.17;94516.64;645849;216;31815;-76
2022/04/21 10:35:52;;;;;;;4.23;3.70;;;24.40;1.40;;;29.41;26.81;94509.66;646925;216;31634;-77
2022/04/21 10:38:33;;;;;;;3.42;3.12;;;23.90;99.90;;;28.75;26.24;94506.23;648680;216;31952;-75
2022/04/21 10:41:14;;;;;;;4.10;3.70;;;24.20;1.40;;;25.02;29.19;94521.73;645749;216;31566;-76
2022/04/21 10:44:04;;;;;;;3.70;2.90;;;22.60;99.90;;;27.96;25.89;94503.38;646020;212;31585;-77
2022/04/21 10:46:45;;;;;;;3.35;3.05;;;23.20;99.90;;;28.83;25.26;94505.61;647033;216;31597;-78
2022/04/21 10:50:03;;;;;;;4.10;3.30;;;23.20;99.90;;;28.21;25.49;94506.98;647033;216;42420;-80
2022/04/21 10:58:50;;;;;;;3.37;3.08;;;25.30;99.90;;;30.16;23.31;94485.70;644893;212;31619;-76
2022/04/21 11:01:31;;;;;;;3.42;3.12;;;23.90;99.90;;;30.73;23.80;94483.19;646244;216;31805;-77
2022/04/21 11:04:12;;;;;;;3.50;3.08;;;24.20;99.90;;;24.76;26.84;94492.12;646745;216;31697;-75
2022/04/21 11:06:56;;;;;;;3.97;3.30;;;22.20;99.90;;;30.02;24.80;94480.34;646414;216;31566;-76
2022/04/21 11:09:39;;;;;;;3.37;3.05;;;24.20;99.90;;;27.72;25.10;94485.42;646630;212;31621;-77
2022/04/21 11:12:42;;;;;;;3.83;3.42;;;23.40;99.90;;;29.45;24.48;94475.00;644854;216;32194;-76
2022/04/21 11:15:30;;;;;;;3.42;3.12;;;23.90;99.90;;;31.31;22.92;94468.34;645988;212;31630;-75
2022/04/21 11:18:11;;;;;;;3.78;3.37;;;24.60;99.90;;;27.23;24.12;94471.70;646307;212;31664;-75
2022/04/21 11:20:53;;;;;;;6.20;3.40;;;22.40;99.90;;;24.60;28.72;94481.34;619887;226;42548;-77
2022/04/21 11:24:06;;;;;;;3.70;2.93;;;22.00;99.90;;;29.48;25.04;94467.37;646412;216;31713;-76
2022/04/21 11:26:54;;;;;;;4.07;3.17;;;24.10;99.90;;;30.19;23.62;94467.22;647630;216;31624;-76
2022/04/21 11:29:35;;;;;;;3.92;3.62;;;24.60;99.90;;;30.25;24.50;94464.52;646481;212;32261;-76
2022/04/21 11:32:23;;;;;;;3.70;3.40;;;24.10;99.90;;;30.62;24.65;94459.23;646584;216;31805;-79
2022/04/21 11:36:05;;;;;;;4.20;3.37;;;23.90;99.90;;;31.19;24.29;94461.94;647420;216;42217;-79
2022/04/21 11:38:53;;;;;;;4.00;3.60;;;24.10;99.90;;;27.09;26.17;94472.56;645917;212;31711;-77
2022/04/21 11:41:35;;;;;;;3.37;3.08;;;22.50;99.90;;;28.53;24.54;94470.42;646852;216;31690;-77
2022/04/21 11:44:22;;;;;;;3.55;3.22;;;23.60;99.90;;;27.99;25.13;94466.59;645133;216;31953;-77
2022/04/21 11:47:04;;;;;;;4.00;3.60;;;22.80;99.90;;;22.64;29.55;94471.14;645866;216;31597;-76
2022/04/21 11:49:58;;;;;;;3.87;3.40;;;20.70;99.90;;;20.57;31.92;94477.22;645508;216;31523;-77
2022/04/21 11:52:46;;;;;;;4.45;3.80;;;18.60;99.90;;;25.27;29.05;94458.70;646519;212;31699;-77
2022/04/21 11:55:24;;;;;;;3.50;3.20;;;22.40;99.90;;;26.97;26.72;94454.63;646541;216;31888;-77
2022/04/21 11:58:06;;;;;;;7.47;3.22;;;22.70;99.90;;;27.06;28.20;94455.81;647044;216;42207;-77
2022/04/21 12:06:28;;;;;;;4.03;2.70;;;23.30;99.90;;;24.89;27.90;94455.19;647231;216;31737;-77
2022/04/21 12:09:13;;;;;;;3.97;3.62;;;21.10;99.90;;;23.17;29.49;94459.04;637808;216;31855;-77
2022/04/21 12:11:57;;;;;;;3.42;3.12;;;19.80;99.90;;;21.84;30.70;94453.22;646830;216;32107;-76
2022/04/21 12:14:38;;;;;;;3.87;3.37;;;19.60;99.90;;;19.99;32.83;94457.65;646570;216;31577;-77
2022/04/21 12:17:20;;;;;;;3.40;3.10;;;18.50;99.90;;;27.10;28.06;94436.14;646970;216;32278;-77
2022/04/21 12:20:08;;;;;;;4.95;3.50;;;22.80;99.90;;;25.58;27.42;94440.94;616202;224;32611;-79
2022/04/21 12:22:52;;;;;;;5.15;3.20;;;22.20;99.90;;;23.30;29.72;94450.86;647063;216;31781;-77
2022/04/21 12:25:34;;;;;;;4.10;3.70;;;20.70;99.90;;;27.06;26.11;94433.53;646991;212;31969;-77
2022/04/21 12:28:16;;;;;;;3.80;3.40;;;21.50;99.90;;;27.71;25.56;94428.19;646089;212;31603;-78
2022/04/21 12:30:57;;;;;;;4.82;3.62;;;22.10;99.90;;;24.53;29.25;94436.75;647174;216;42752;-75
2022/04/21 12:35:55;;;;;;;3.28;2.92;;;21.40;99.90;;;29.87;25.25;94422.43;646594;216;31760;-77
2022/04/21 12:41:28;;;;;;;3.62;3.12;;;23.90;99.90;;;29.93;23.94;94412.78;648531;216;32109;-80
2022/04/21 12:44:12;;;;;;;3.87;3.00;;;22.90;99.90;;;29.52;24.58;94410.30;646039;212;42210;-78
2022/04/21 12:46:59;;;;;;;3.60;3.30;;;23.50;99.90;;;31.69;23.28;94407.08;647092;216;31571;-77
2022/04/21 12:50:07;;;;;;;4.10;3.50;;;23.40;99.90;;;30.55;24.08;94403.22;645827;216;42738;-76
2022/04/21 12:52:48;;;;;;;3.30;3.00;;;22.80;99.90;;;29.64;24.33;94400.38;645921;216;42164;-75
2022/04/21 12:55:30;;;;;;;3.62;3.00;;;23.30;99.90;;;29.14;24.98;94407.16;647054;213;31555;-76
2022/04/21 12:58:13;;;;;;;4.30;3.50;;;22.60;99.90;;;29.42;22.80;94400.65;646585;216;31773;-76
2022/04/21 13:00:54;;;;;;;3.17;2.90;;;22.80;99.90;;;30.01;24.84;94399.56;646730;216;31689;-76
2022/04/21 13:03:43;;;;;;;4.00;2.90;;;23.00;99.90;;;31.09;23.86;94384.76;620619;226;31950;-80
2022/04/21 13:06:30;;;;;;;3.10;2.80;;;23.60;99.90;;;31.86;23.30;94382.33;646890;216;42355;-77